sensor_id;sensor_type;location;lat;lon;timestamp;P1;durP1;ratioP1;P2;durP2;ratioP2
63217;SDS011;49314;48.278;16.378;2022-09-13T00:00:05;3.77;;;3.47;;
63217;SDS011;49314;48.278;16.378;2022-09-13T00:02:30;3.30;;;3.00;;
63217;SDS011;49314;48.278;16.378;2022-09-13T00:04:56;3.78;;;2.95;;
63217;SDS011;49314;48.278;16.378;2022-09-13T00:07:21;3.63;;;3.37;;
63217;SDS011;49314;48.278;16.378;2022-09-13T00:09:46;2.87;;;2.67;;
63217;SDS011;49314;48.278;16.378;2022-09-13T00:12:11;2.60;;;2.40;;
63217;SDS011;49314;48.278;16.378;2022-09-13T00:14:36;3.70;;;3.40;;
63217;SDS011;49314;48.278;16.378;2022-09-13T00:17:02;2.53;;;2.33;;
63217;SDS011;49314;48.278;16.378;2022-09-13T00:19:27;3.38;;;3.13;;
63217;SDS011;49314;48.278;16.378;2022-09-13T00:21:52;2.80;;;2.60;;
63217;SDS011;49314;48.278;16.378;2022-09-13T00:24:17;3.13;;;2.60;;
63217;SDS011;49314;48.278;16.378;2022-09-13T00:26:43;2.97;;;2.77;;
63217;SDS011;49314;48.278;16.378;2022-09-13T00:29:08;2.67;;;2.47;;
63217;SDS011;49314;48.278;16.378;2022-09-13T00:31:33;3.30;;;3.00;;
63217;SDS011;49314;48.278;16.378;2022-09-13T00:33:59;2.90;;;2.70;;
63217;SDS011;49314;48.278;16.378;2022-09-13T00:36:24;2.75;;;2.55;;
63217;SDS011;49314;48.278;16.378;2022-09-13T00:38:49;4.17;;;2.40;;
63217;SDS011;49314;48.278;16.378;2022-09-13T00:41:15;2.77;;;2.60;;
63217;SDS011;49314;48.278;16.378;2022-09-13T00:43:42;4.95;;;2.50;;
63217;SDS011;49314;48.278;16.378;2022-09-13T00:46:08;3.30;;;3.08;;
63217;SDS011;49314;48.278;16.378;2022-09-13T00:48:35;3.10;;;2.90;;
63217;SDS011;49314;48.278;16.378;2022-09-13T00:51:01;3.72;;;3.42;;
63217;SDS011;49314;48.278;16.378;2022-09-13T00:53:27;2.80;;;2.53;;
63217;SDS011;49314;48.278;16.378;2022-09-13T00:56:02;2.85;;;2.65;;
63217;SDS011;49314;48.278;16.378;2022-09-13T00:58:31;3.30;;;3.10;;
63217;SDS011;49314;48.278;16.378;2022-09-13T01:00:58;2.33;;;2.13;;
63217;SDS011;49314;48.278;16.378;2022-09-13T01:03:25;3.08;;;2.88;;
63217;SDS011;49314;48.278;16.378;2022-09-13T01:05:53;2.50;;;2.33;;
63217;SDS011;49314;48.278;16.378;2022-09-13T01:08:19;3.42;;;3.20;;
63217;SDS011;49314;48.278;16.378;2022-09-13T01:10:46;3.60;;;3.38;;
63217;SDS011;49314;48.278;16.378;2022-09-13T01:13:20;3.25;;;3.05;;
63217;SDS011;49314;48.278;16.378;2022-09-13T01:15:45;2.33;;;2.13;;
63217;SDS011;49314;48.278;16.378;2022-09-13T01:18:11;2.90;;;2.70;;
63217;SDS011;49314;48.278;16.378;2022-09-13T01:20:43;3.13;;;2.70;;
63217;SDS011;49314;48.278;16.378;2022-09-13T01:31:06;3.28;;;3.08;;
63217;SDS011;49314;48.278;16.378;2022-09-13T01:38:30;4.20;;;3.60;;
63217;SDS011;49314;48.278;16.378;2022-09-13T01:46:04;3.10;;;2.53;;
63217;SDS011;49314;48.278;16.378;2022-09-13T01:48:33;3.17;;;2.97;;
63217;SDS011;49314;48.278;16.378;2022-09-13T01:51:01;2.67;;;2.47;;
63217;SDS011;49314;48.278;16.378;2022-09-13T01:53:39;2.47;;;2.28;;
63217;SDS011;49314;48.278;16.378;2022-09-13T01:56:10;2.70;;;2.50;;
63217;SDS011;49314;48.278;16.378;2022-09-13T02:01:04;2.93;;;2.63;;
63217;SDS011;49314;48.278;16.378;2022-09-13T02:03:35;2.83;;;2.63;;
63217;SDS011;49314;48.278;16.378;2022-09-13T02:06:04;3.28;;;2.97;;
63217;SDS011;49314;48.278;16.378;2022-09-13T02:11:14;3.30;;;3.10;;
63217;SDS011;49314;48.278;16.378;2022-09-13T02:13:54;3.17;;;2.97;;
63217;SDS011;49314;48.278;16.378;2022-09-13T02:16:31;3.47;;;3.17;;
63217;SDS011;49314;48.278;16.378;2022-09-13T02:18:58;2.20;;;2.10;;
63217;SDS011;49314;48.278;16.378;2022-09-13T02:21:26;3.13;;;2.92;;
63217;SDS011;49314;48.278;16.378;2022-09-13T02:23:54;3.67;;;3.47;;
63217;SDS011;49314;48.278;16.378;2022-09-13T02:26:20;2.45;;;2.25;;
63217;SDS011;49314;48.278;16.378;2022-09-13T02:28:48;3.42;;;2.78;;
63217;SDS011;49314;48.278;16.378;2022-09-13T02:31:16;2.83;;;2.63;;
63217;SDS011;49314;48.278;16.378;2022-09-13T02:33:43;3.70;;;3.50;;
63217;SDS011;49314;48.278;16.378;2022-09-13T02:36:15;3.20;;;3.00;;
63217;SDS011;49314;48.278;16.378;2022-09-13T02:41:20;2.83;;;2.63;;
63217;SDS011;49314;48.278;16.378;2022-09-13T02:43:52;3.35;;;2.40;;
63217;SDS011;49314;48.278;16.378;2022-09-13T02:54:24;3.43;;;3.10;;
63217;SDS011;49314;48.278;16.378;2022-09-13T02:59:17;3.95;;;2.92;;
63217;SDS011;49314;48.278;16.378;2022-09-13T03:01:44;3.13;;;2.92;;
63217;SDS011;49314;48.278;16.378;2022-09-13T03:04:11;3.00;;;2.78;;
63217;SDS011;49314;48.278;16.378;2022-09-13T03:06:38;3.42;;;3.20;;
63217;SDS011;49314;48.278;16.378;2022-09-13T03:09:04;3.42;;;3.17;;
63217;SDS011;49314;48.278;16.378;2022-09-13T03:11:50;3.38;;;3.15;;
63217;SDS011;49314;48.278;16.378;2022-09-13T03:14:31;3.58;;;3.30;;
63217;SDS011;49314;48.278;16.378;2022-09-13T03:17:04;3.33;;;3.05;;
63217;SDS011;49314;48.278;16.378;2022-09-13T03:22:10;3.83;;;3.45;;
63217;SDS011;49314;48.278;16.378;2022-09-13T03:29:39;3.60;;;3.30;;
63217;SDS011;49314;48.278;16.378;2022-09-13T03:32:15;3.92;;;3.60;;
63217;SDS011;49314;48.278;16.378;2022-09-13T03:35:03;3.35;;;3.13;;
63217;SDS011;49314;48.278;16.378;2022-09-13T03:40:00;3.13;;;2.83;;
63217;SDS011;49314;48.278;16.378;2022-09-13T03:42:30;3.08;;;2.88;;
63217;SDS011;49314;48.278;16.378;2022-09-13T03:44:56;3.85;;;3.65;;
63217;SDS011;49314;48.278;16.378;2022-09-13T03:47:22;4.18;;;3.95;;
63217;SDS011;49314;48.278;16.378;2022-09-13T03:49:49;3.60;;;3.40;;
63217;SDS011;49314;48.278;16.378;2022-09-13T03:52:16;3.85;;;3.55;;
63217;SDS011;49314;48.278;16.378;2022-09-13T03:54:42;3.33;;;3.13;;
63217;SDS011;49314;48.278;16.378;2022-09-13T03:57:14;3.27;;;3.03;;
63217;SDS011;49314;48.278;16.378;2022-09-13T03:59:42;3.88;;;3.58;;
63217;SDS011;49314;48.278;16.378;2022-09-13T04:02:09;4.50;;;4.03;;
63217;SDS011;49314;48.278;16.378;2022-09-13T04:04:35;3.85;;;3.65;;
63217;SDS011;49314;48.278;16.378;2022-09-13T04:07:00;3.65;;;3.45;;
63217;SDS011;49314;48.278;16.378;2022-09-13T04:09:28;4.13;;;3.83;;
63217;SDS011;49314;48.278;16.378;2022-09-13T04:11:53;3.78;;;3.55;;
63217;SDS011;49314;48.278;16.378;2022-09-13T04:14:19;4.30;;;4.00;;
63217;SDS011;49314;48.278;16.378;2022-09-13T04:16:44;4.10;;;3.75;;
63217;SDS011;49314;48.278;16.378;2022-09-13T04:19:09;4.30;;;4.00;;
63217;SDS011;49314;48.278;16.378;2022-09-13T04:21:35;3.83;;;3.63;;
63217;SDS011;49314;48.278;16.378;2022-09-13T04:24:00;3.97;;;3.78;;
63217;SDS011;49314;48.278;16.378;2022-09-13T04:26:25;4.47;;;4.13;;
63217;SDS011;49314;48.278;16.378;2022-09-13T04:28:53;3.90;;;3.63;;
63217;SDS011;49314;48.278;16.378;2022-09-13T04:31:19;4.00;;;3.80;;
63217;SDS011;49314;48.278;16.378;2022-09-13T04:33:45;4.07;;;3.87;;
63217;SDS011;49314;48.278;16.378;2022-09-13T04:36:10;4.35;;;4.15;;
63217;SDS011;49314;48.278;16.378;2022-09-13T04:38:35;4.40;;;4.17;;
63217;SDS011;49314;48.278;16.378;2022-09-13T04:41:01;4.07;;;3.78;;
63217;SDS011;49314;48.278;16.378;2022-09-13T04:43:27;4.05;;;3.70;;
63217;SDS011;49314;48.278;16.378;2022-09-13T04:45:52;3.80;;;3.50;;
63217;SDS011;49314;48.278;16.378;2022-09-13T04:48:17;4.72;;;4.40;;
63217;SDS011;49314;48.278;16.378;2022-09-13T04:50:43;4.05;;;3.78;;
63217;SDS011;49314;48.278;16.378;2022-09-13T04:53:08;4.57;;;4.22;;
63217;SDS011;49314;48.278;16.378;2022-09-13T04:55:34;3.60;;;3.40;;
63217;SDS011;49314;48.278;16.378;2022-09-13T04:58:00;4.55;;;4.15;;
63217;SDS011;49314;48.278;16.378;2022-09-13T05:00:26;8.13;;;4.25;;
63217;SDS011;49314;48.278;16.378;2022-09-13T05:02:55;3.97;;;3.63;;
63217;SDS011;49314;48.278;16.378;2022-09-13T05:05:20;4.20;;;3.55;;
63217;SDS011;49314;48.278;16.378;2022-09-13T05:07:48;4.78;;;4.47;;
63217;SDS011;49314;48.278;16.378;2022-09-13T05:10:14;4.55;;;4.25;;
63217;SDS011;49314;48.278;16.378;2022-09-13T05:12:39;3.85;;;3.58;;
63217;SDS011;49314;48.278;16.378;2022-09-13T05:15:05;4.03;;;3.70;;
63217;SDS011;49314;48.278;16.378;2022-09-13T05:17:31;4.60;;;4.30;;
63217;SDS011;49314;48.278;16.378;2022-09-13T05:19:56;5.03;;;4.57;;
63217;SDS011;49314;48.278;16.378;2022-09-13T05:22:21;4.53;;;4.13;;
63217;SDS011;49314;48.278;16.378;2022-09-13T05:24:46;4.90;;;4.60;;
63217;SDS011;49314;48.278;16.378;2022-09-13T05:27:11;4.80;;;4.13;;
63217;SDS011;49314;48.278;16.378;2022-09-13T05:29:37;4.90;;;4.40;;
63217;SDS011;49314;48.278;16.378;2022-09-13T05:32:02;4.60;;;4.30;;
63217;SDS011;49314;48.278;16.378;2022-09-13T05:34:28;4.78;;;4.47;;
63217;SDS011;49314;48.278;16.378;2022-09-13T05:36:53;5.05;;;4.68;;
63217;SDS011;49314;48.278;16.378;2022-09-13T05:39:18;4.43;;;4.13;;
63217;SDS011;49314;48.278;16.378;2022-09-13T05:41:46;4.43;;;4.13;;
63217;SDS011;49314;48.278;16.378;2022-09-13T05:44:11;5.90;;;5.30;;
63217;SDS011;49314;48.278;16.378;2022-09-13T05:46:36;4.50;;;4.10;;
63217;SDS011;49314;48.278;16.378;2022-09-13T05:49:02;5.57;;;5.17;;
63217;SDS011;49314;48.278;16.378;2022-09-13T05:51:27;5.47;;;4.33;;
63217;SDS011;49314;48.278;16.378;2022-09-13T05:53:52;4.53;;;4.07;;
63217;SDS011;49314;48.278;16.378;2022-09-13T05:56:20;4.60;;;4.30;;
63217;SDS011;49314;48.278;16.378;2022-09-13T05:58:46;4.90;;;4.60;;
63217;SDS011;49314;48.278;16.378;2022-09-13T06:01:12;5.47;;;4.80;;
63217;SDS011;49314;48.278;16.378;2022-09-13T06:03:37;5.25;;;4.85;;
63217;SDS011;49314;48.278;16.378;2022-09-13T06:06:03;6.60;;;5.57;;
63217;SDS011;49314;48.278;16.378;2022-09-13T06:08:29;6.05;;;5.57;;
63217;SDS011;49314;48.278;16.378;2022-09-13T06:13:20;5.50;;;5.10;;
63217;SDS011;49314;48.278;16.378;2022-09-13T06:15:45;6.20;;;5.72;;
63217;SDS011;49314;48.278;16.378;2022-09-13T06:18:10;5.80;;;5.40;;
63217;SDS011;49314;48.278;16.378;2022-09-13T06:20:35;7.50;;;6.80;;
63217;SDS011;49314;48.278;16.378;2022-09-13T06:23:01;6.43;;;6.03;;
63217;SDS011;49314;48.278;16.378;2022-09-13T06:25:27;7.10;;;6.50;;
63217;SDS011;49314;48.278;16.378;2022-09-13T06:27:53;8.30;;;6.43;;
63217;SDS011;49314;48.278;16.378;2022-09-13T06:30:19;6.45;;;5.97;;
63217;SDS011;49314;48.278;16.378;2022-09-13T06:32:44;6.47;;;5.73;;
63217;SDS011;49314;48.278;16.378;2022-09-13T06:35:10;6.83;;;6.33;;
63217;SDS011;49314;48.278;16.378;2022-09-13T06:37:36;6.00;;;5.50;;
63217;SDS011;49314;48.278;16.378;2022-09-13T06:40:02;5.53;;;5.03;;
63217;SDS011;49314;48.278;16.378;2022-09-13T06:42:29;6.28;;;5.78;;
63217;SDS011;49314;48.278;16.378;2022-09-13T06:44:55;5.60;;;5.20;;
63217;SDS011;49314;48.278;16.378;2022-09-13T06:47:21;6.78;;;6.18;;
63217;SDS011;49314;48.278;16.378;2022-09-13T06:49:47;6.18;;;5.75;;
63217;SDS011;49314;48.278;16.378;2022-09-13T06:52:13;5.68;;;5.10;;
63217;SDS011;49314;48.278;16.378;2022-09-13T06:54:40;5.13;;;4.80;;
63217;SDS011;49314;48.278;16.378;2022-09-13T06:57:06;5.45;;;5.03;;
63217;SDS011;49314;48.278;16.378;2022-09-13T06:59:33;6.55;;;6.05;;
63217;SDS011;49314;48.278;16.378;2022-09-13T07:01:59;5.53;;;5.05;;
63217;SDS011;49314;48.278;16.378;2022-09-13T07:04:25;5.55;;;5.05;;
63217;SDS011;49314;48.278;16.378;2022-09-13T07:06:56;5.88;;;5.35;;
63217;SDS011;49314;48.278;16.378;2022-09-13T07:09:23;5.68;;;5.22;;
63217;SDS011;49314;48.278;16.378;2022-09-13T07:11:51;4.75;;;4.25;;
63217;SDS011;49314;48.278;16.378;2022-09-13T07:14:18;6.35;;;4.95;;
63217;SDS011;49314;48.278;16.378;2022-09-13T07:16:45;4.82;;;4.53;;
63217;SDS011;49314;48.278;16.378;2022-09-13T07:19:13;4.85;;;4.53;;
63217;SDS011;49314;48.278;16.378;2022-09-13T07:21:40;4.82;;;4.53;;
63217;SDS011;49314;48.278;16.378;2022-09-13T07:24:06;8.00;;;4.32;;
63217;SDS011;49314;48.278;16.378;2022-09-13T07:26:33;5.30;;;4.75;;
63217;SDS011;49314;48.278;16.378;2022-09-13T07:29:00;5.60;;;3.78;;
63217;SDS011;49314;48.278;16.378;2022-09-13T07:31:28;6.13;;;5.53;;
63217;SDS011;49314;48.278;16.378;2022-09-13T07:33:55;6.47;;;5.88;;
63217;SDS011;49314;48.278;16.378;2022-09-13T07:36:22;7.68;;;5.82;;
63217;SDS011;49314;48.278;16.378;2022-09-13T07:38:49;7.68;;;6.55;;
63217;SDS011;49314;48.278;16.378;2022-09-13T07:41:19;7.05;;;6.30;;
63217;SDS011;49314;48.278;16.378;2022-09-13T07:43:46;8.50;;;6.03;;
63217;SDS011;49314;48.278;16.378;2022-09-13T07:46:14;7.22;;;6.43;;
63217;SDS011;49314;48.278;16.378;2022-09-13T07:48:41;10.40;;;5.90;;
63217;SDS011;49314;48.278;16.378;2022-09-13T07:51:09;6.25;;;5.85;;
63217;SDS011;49314;48.278;16.378;2022-09-13T07:53:36;6.75;;;5.95;;
63217;SDS011;49314;48.278;16.378;2022-09-13T07:56:04;6.72;;;6.13;;
63217;SDS011;49314;48.278;16.378;2022-09-13T07:58:31;6.22;;;5.75;;
63217;SDS011;49314;48.278;16.378;2022-09-13T08:01:01;7.70;;;6.90;;
63217;SDS011;49314;48.278;16.378;2022-09-13T08:03:29;5.97;;;5.38;;
63217;SDS011;49314;48.278;16.378;2022-09-13T08:05:55;6.03;;;5.53;;
63217;SDS011;49314;48.278;16.378;2022-09-13T08:08:21;6.15;;;5.55;;
63217;SDS011;49314;48.278;16.378;2022-09-13T08:10:48;7.18;;;5.43;;
63217;SDS011;49314;48.278;16.378;2022-09-13T08:13:15;6.38;;;5.78;;
63217;SDS011;49314;48.278;16.378;2022-09-13T08:15:42;5.38;;;4.88;;
63217;SDS011;49314;48.278;16.378;2022-09-13T08:18:08;5.93;;;5.28;;
63217;SDS011;49314;48.278;16.378;2022-09-13T08:20:35;8.00;;;4.85;;
63217;SDS011;49314;48.278;16.378;2022-09-13T08:23:02;5.70;;;5.22;;
63217;SDS011;49314;48.278;16.378;2022-09-13T08:25:30;7.70;;;5.28;;
63217;SDS011;49314;48.278;16.378;2022-09-13T08:27:57;5.07;;;4.10;;
63217;SDS011;49314;48.278;16.378;2022-09-13T08:30:23;4.88;;;4.13;;
63217;SDS011;49314;48.278;16.378;2022-09-13T08:32:49;5.72;;;4.47;;
63217;SDS011;49314;48.278;16.378;2022-09-13T08:35:16;7.55;;;4.75;;
63217;SDS011;49314;48.278;16.378;2022-09-13T08:37:42;7.07;;;4.93;;
63217;SDS011;49314;48.278;16.378;2022-09-13T08:40:09;4.80;;;4.20;;
63217;SDS011;49314;48.278;16.378;2022-09-13T08:42:53;4.78;;;4.35;;
63217;SDS011;49314;48.278;16.378;2022-09-13T08:45:23;5.00;;;4.57;;
63217;SDS011;49314;48.278;16.378;2022-09-13T08:50:21;4.40;;;3.92;;
63217;SDS011;49314;48.278;16.378;2022-09-13T08:52:50;2.75;;;2.55;;
63217;SDS011;49314;48.278;16.378;2022-09-13T08:57:57;4.32;;;3.97;;
63217;SDS011;49314;48.278;16.378;2022-09-13T09:00:29;3.92;;;3.53;;
63217;SDS011;49314;48.278;16.378;2022-09-13T09:05:39;4.57;;;3.65;;
63217;SDS011;49314;48.278;16.378;2022-09-13T09:08:10;3.72;;;3.42;;
63217;SDS011;49314;48.278;16.378;2022-09-13T09:10:40;6.35;;;3.92;;
63217;SDS011;49314;48.278;16.378;2022-09-13T09:13:08;3.65;;;3.35;;
63217;SDS011;49314;48.278;16.378;2022-09-13T09:15:48;3.90;;;3.60;;
63217;SDS011;49314;48.278;16.378;2022-09-13T09:18:23;3.28;;;3.08;;
63217;SDS011;49314;48.278;16.378;2022-09-13T09:20:50;3.75;;;3.55;;
63217;SDS011;49314;48.278;16.378;2022-09-13T09:23:19;3.35;;;3.15;;
63217;SDS011;49314;48.278;16.378;2022-09-13T09:25:45;3.97;;;3.67;;
63217;SDS011;49314;48.278;16.378;2022-09-13T09:28:12;2.60;;;2.40;;
63217;SDS011;49314;48.278;16.378;2022-09-13T09:33:54;2.70;;;2.47;;
63217;SDS011;49314;48.278;16.378;2022-09-13T09:36:10;6.68;;;4.07;;
63217;SDS011;49314;48.278;16.378;2022-09-13T09:38:40;2.88;;;2.67;;
63217;SDS011;49314;48.278;16.378;2022-09-13T09:41:12;3.55;;;3.25;;
63217;SDS011;49314;48.278;16.378;2022-09-13T09:46:23;3.47;;;3.15;;
63217;SDS011;49314;48.278;16.378;2022-09-13T09:48:53;3.45;;;3.15;;
63217;SDS011;49314;48.278;16.378;2022-09-13T09:51:20;4.88;;;3.75;;
63217;SDS011;49314;48.278;16.378;2022-09-13T09:53:49;3.78;;;3.50;;
63217;SDS011;49314;48.278;16.378;2022-09-13T09:56:28;3.85;;;3.40;;
63217;SDS011;49314;48.278;16.378;2022-09-13T09:58:55;3.35;;;3.05;;
63217;SDS011;49314;48.278;16.378;2022-09-13T10:03:49;3.60;;;3.30;;
63217;SDS011;49314;48.278;16.378;2022-09-13T10:06:24;2.97;;;2.63;;
63217;SDS011;49314;48.278;16.378;2022-09-13T10:08:59;2.70;;;2.50;;
63217;SDS011;49314;48.278;16.378;2022-09-13T10:22:24;4.47;;;3.95;;
63217;SDS011;49314;48.278;16.378;2022-09-13T10:24:50;4.22;;;3.83;;
63217;SDS011;49314;48.278;16.378;2022-09-13T10:27:29;4.53;;;4.15;;
63217;SDS011;49314;48.278;16.378;2022-09-13T10:29:57;3.35;;;3.05;;
63217;SDS011;49314;48.278;16.378;2022-09-13T10:32:25;3.97;;;3.05;;
63217;SDS011;49314;48.278;16.378;2022-09-13T10:34:52;3.20;;;2.70;;
63217;SDS011;49314;48.278;16.378;2022-09-13T10:37:23;4.68;;;2.95;;
63217;SDS011;49314;48.278;16.378;2022-09-13T10:40:04;3.47;;;3.00;;
63217;SDS011;49314;48.278;16.378;2022-09-13T10:42:32;5.10;;;3.47;;
63217;SDS011;49314;48.278;16.378;2022-09-13T10:45:05;3.78;;;3.47;;
63217;SDS011;49314;48.278;16.378;2022-09-13T10:50:19;4.45;;;3.95;;
63217;SDS011;49314;48.278;16.378;2022-09-13T10:52:52;3.92;;;3.63;;
63217;SDS011;49314;48.278;16.378;2022-09-13T10:57:45;3.92;;;3.47;;
63217;SDS011;49314;48.278;16.378;2022-09-13T11:00:12;3.80;;;3.50;;
63217;SDS011;49314;48.278;16.378;2022-09-13T11:07:58;3.95;;;3.58;;
63217;SDS011;49314;48.278;16.378;2022-09-13T11:18:19;4.07;;;3.77;;
63217;SDS011;49314;48.278;16.378;2022-09-13T11:20:51;4.03;;;3.65;;
63217;SDS011;49314;48.278;16.378;2022-09-13T11:23:25;3.60;;;3.30;;
63217;SDS011;49314;48.278;16.378;2022-09-13T11:38:40;4.97;;;4.10;;
63217;SDS011;49314;48.278;16.378;2022-09-13T11:46:23;3.95;;;2.90;;
63217;SDS011;49314;48.278;16.378;2022-09-13T11:56:49;3.53;;;3.22;;
63217;SDS011;49314;48.278;16.378;2022-09-13T12:01:43;3.53;;;3.33;;
63217;SDS011;49314;48.278;16.378;2022-09-13T12:06:45;2.70;;;2.45;;
63217;SDS011;49314;48.278;16.378;2022-09-13T12:09:14;3.17;;;2.97;;
63217;SDS011;49314;48.278;16.378;2022-09-13T12:11:46;3.88;;;3.30;;
63217;SDS011;49314;48.278;16.378;2022-09-13T12:14:14;3.10;;;2.90;;
63217;SDS011;49314;48.278;16.378;2022-09-13T12:16:40;4.72;;;3.47;;
63217;SDS011;49314;48.278;16.378;2022-09-13T12:19:11;3.60;;;3.40;;
63217;SDS011;49314;48.278;16.378;2022-09-13T12:21:38;3.38;;;3.17;;
63217;SDS011;49314;48.278;16.378;2022-09-13T12:24:16;3.20;;;3.00;;
63217;SDS011;49314;48.278;16.378;2022-09-13T12:26:47;3.80;;;3.40;;
63217;SDS011;49314;48.278;16.378;2022-09-13T12:29:18;3.78;;;3.47;;
63217;SDS011;49314;48.278;16.378;2022-09-13T12:31:46;3.35;;;2.97;;
63217;SDS011;49314;48.278;16.378;2022-09-13T12:34:19;3.90;;;3.30;;
63217;SDS011;49314;48.278;16.378;2022-09-13T13:00:09;3.65;;;3.08;;
63217;SDS011;49314;48.278;16.378;2022-09-13T13:02:37;3.47;;;3.17;;
63217;SDS011;49314;48.278;16.378;2022-09-13T13:07:51;3.08;;;2.78;;
63217;SDS011;49314;48.278;16.378;2022-09-13T13:10:36;3.72;;;3.50;;
63217;SDS011;49314;48.278;16.378;2022-09-13T13:13:09;3.67;;;3.38;;
63217;SDS011;49314;48.278;16.378;2022-09-13T13:18:19;3.57;;;3.30;;
63217;SDS011;49314;48.278;16.378;2022-09-13T13:31:07;3.30;;;3.00;;
63217;SDS011;49314;48.278;16.378;2022-09-13T13:33:44;2.85;;;2.65;;
63217;SDS011;49314;48.278;16.378;2022-09-13T13:36:26;3.90;;;3.70;;
63217;SDS011;49314;48.278;16.378;2022-09-13T13:43:58;3.17;;;2.15;;
63217;SDS011;49314;48.278;16.378;2022-09-13T13:46:25;5.13;;;3.63;;
63217;SDS011;49314;48.278;16.378;2022-09-13T13:48:51;4.25;;;3.90;;
63217;SDS011;49314;48.278;16.378;2022-09-13T13:51:17;3.15;;;2.90;;
63217;SDS011;49314;48.278;16.378;2022-09-13T13:53:47;3.25;;;2.97;;
63217;SDS011;49314;48.278;16.378;2022-09-13T13:56:16;2.65;;;2.42;;
63217;SDS011;49314;48.278;16.378;2022-09-13T14:01:13;4.15;;;3.72;;
63217;SDS011;49314;48.278;16.378;2022-09-13T14:03:49;3.00;;;2.80;;
63217;SDS011;49314;48.278;16.378;2022-09-13T14:21:31;3.47;;;3.17;;
63217;SDS011;49314;48.278;16.378;2022-09-13T14:26:52;3.38;;;3.10;;
63217;SDS011;49314;48.278;16.378;2022-09-13T14:29:19;3.08;;;2.88;;
63217;SDS011;49314;48.278;16.378;2022-09-13T14:31:45;2.92;;;2.72;;
63217;SDS011;49314;48.278;16.378;2022-09-13T14:34:20;3.22;;;2.42;;
63217;SDS011;49314;48.278;16.378;2022-09-13T14:36:50;3.42;;;3.13;;
63217;SDS011;49314;48.278;16.378;2022-09-13T14:39:15;3.42;;;3.17;;
63217;SDS011;49314;48.278;16.378;2022-09-13T14:41:41;2.70;;;2.50;;
63217;SDS011;49314;48.278;16.378;2022-09-13T14:44:13;3.00;;;2.80;;
63217;SDS011;49314;48.278;16.378;2022-09-13T14:46:38;2.90;;;2.60;;
63217;SDS011;49314;48.278;16.378;2022-09-13T14:49:06;3.15;;;2.95;;
63217;SDS011;49314;48.278;16.378;2022-09-13T14:56:48;4.22;;;3.30;;
63217;SDS011;49314;48.278;16.378;2022-09-13T15:02:04;3.20;;;3.00;;
63217;SDS011;49314;48.278;16.378;2022-09-13T15:04:30;2.93;;;2.73;;
63217;SDS011;49314;48.278;16.378;2022-09-13T15:07:05;2.67;;;2.47;;
63217;SDS011;49314;48.278;16.378;2022-09-13T15:09:31;3.08;;;2.88;;
63217;SDS011;49314;48.278;16.378;2022-09-13T15:11:59;3.22;;;3.03;;
63217;SDS011;49314;48.278;16.378;2022-09-13T15:16:59;2.95;;;2.63;;
63217;SDS011;49314;48.278;16.378;2022-09-13T15:24:44;2.13;;;1.93;;
63217;SDS011;49314;48.278;16.378;2022-09-13T15:27:20;3.00;;;2.70;;
63217;SDS011;49314;48.278;16.378;2022-09-13T15:29:50;2.95;;;2.75;;
63217;SDS011;49314;48.278;16.378;2022-09-13T15:32:19;3.05;;;2.40;;
63217;SDS011;49314;48.278;16.378;2022-09-13T15:34:45;2.45;;;2.20;;
63217;SDS011;49314;48.278;16.378;2022-09-13T15:37:12;3.55;;;2.65;;
63217;SDS011;49314;48.278;16.378;2022-09-13T15:40:00;2.95;;;2.75;;
63217;SDS011;49314;48.278;16.378;2022-09-13T15:42:26;3.08;;;2.88;;
63217;SDS011;49314;48.278;16.378;2022-09-13T15:44:51;2.83;;;2.53;;
63217;SDS011;49314;48.278;16.378;2022-09-13T15:47:17;3.37;;;3.17;;
63217;SDS011;49314;48.278;16.378;2022-09-13T15:49:46;2.08;;;1.95;;
63217;SDS011;49314;48.278;16.378;2022-09-13T15:52:11;2.75;;;2.55;;
63217;SDS011;49314;48.278;16.378;2022-09-13T15:54:38;3.30;;;3.10;;
63217;SDS011;49314;48.278;16.378;2022-09-13T15:57:05;3.92;;;2.83;;
63217;SDS011;49314;48.278;16.378;2022-09-13T15:59:31;3.53;;;3.22;;
63217;SDS011;49314;48.278;16.378;2022-09-13T16:01:56;3.25;;;3.00;;
63217;SDS011;49314;48.278;16.378;2022-09-13T16:04:22;3.22;;;2.42;;
63217;SDS011;49314;48.278;16.378;2022-09-13T16:06:47;2.58;;;2.38;;
63217;SDS011;49314;48.278;16.378;2022-09-13T16:09:19;2.67;;;2.47;;
63217;SDS011;49314;48.278;16.378;2022-09-13T16:11:46;2.50;;;2.20;;
63217;SDS011;49314;48.278;16.378;2022-09-13T16:14:12;2.75;;;2.50;;
63217;SDS011;49314;48.278;16.378;2022-09-13T16:16:37;3.28;;;3.00;;
63217;SDS011;49314;48.278;16.378;2022-09-13T16:19:02;2.80;;;2.60;;
63217;SDS011;49314;48.278;16.378;2022-09-13T16:21:28;3.22;;;2.30;;
63217;SDS011;49314;48.278;16.378;2022-09-13T16:23:53;2.90;;;2.78;;
63217;SDS011;49314;48.278;16.378;2022-09-13T16:26:19;2.67;;;2.47;;
63217;SDS011;49314;48.278;16.378;2022-09-13T16:28:44;2.67;;;2.47;;
63217;SDS011;49314;48.278;16.378;2022-09-13T16:31:09;2.57;;;2.37;;
63217;SDS011;49314;48.278;16.378;2022-09-13T16:33:34;2.97;;;2.77;;
63217;SDS011;49314;48.278;16.378;2022-09-13T16:36:00;2.53;;;2.40;;
63217;SDS011;49314;48.278;16.378;2022-09-13T16:38:26;3.00;;;2.80;;
63217;SDS011;49314;48.278;16.378;2022-09-13T16:40:51;2.67;;;2.47;;
63217;SDS011;49314;48.278;16.378;2022-09-13T16:43:17;3.17;;;2.95;;
63217;SDS011;49314;48.278;16.378;2022-09-13T16:45:42;2.95;;;2.75;;
63217;SDS011;49314;48.278;16.378;2022-09-13T16:48:09;2.60;;;2.40;;
63217;SDS011;49314;48.278;16.378;2022-09-13T16:50:34;2.78;;;2.55;;
63217;SDS011;49314;48.278;16.378;2022-09-13T16:53:00;2.63;;;2.42;;
63217;SDS011;49314;48.278;16.378;2022-09-13T16:55:25;3.35;;;3.15;;
63217;SDS011;49314;48.278;16.378;2022-09-13T16:57:51;2.92;;;2.72;;
63217;SDS011;49314;48.278;16.378;2022-09-13T17:00:17;2.17;;;2.05;;
63217;SDS011;49314;48.278;16.378;2022-09-13T17:02:44;3.17;;;2.88;;
63217;SDS011;49314;48.278;16.378;2022-09-13T17:05:09;3.65;;;2.83;;
63217;SDS011;49314;48.278;16.378;2022-09-13T17:07:35;2.95;;;2.75;;
63217;SDS011;49314;48.278;16.378;2022-09-13T17:10:01;3.28;;;2.47;;
63217;SDS011;49314;48.278;16.378;2022-09-13T17:12:27;2.50;;;2.33;;
63217;SDS011;49314;48.278;16.378;2022-09-13T17:14:52;3.93;;;2.67;;
63217;SDS011;49314;48.278;16.378;2022-09-13T17:17:19;7.28;;;2.60;;
63217;SDS011;49314;48.278;16.378;2022-09-13T17:19:44;3.78;;;2.25;;
63217;SDS011;49314;48.278;16.378;2022-09-13T17:22:09;2.60;;;2.43;;
63217;SDS011;49314;48.278;16.378;2022-09-13T17:24:35;3.05;;;2.63;;
63217;SDS011;49314;48.278;16.378;2022-09-13T17:27:01;5.15;;;3.17;;
63217;SDS011;49314;48.278;16.378;2022-09-13T17:29:28;2.88;;;2.50;;
63217;SDS011;49314;48.278;16.378;2022-09-13T17:31:55;2.97;;;2.30;;
63217;SDS011;49314;48.278;16.378;2022-09-13T17:34:21;3.15;;;2.65;;
63217;SDS011;49314;48.278;16.378;2022-09-13T17:36:46;2.40;;;2.20;;
63217;SDS011;49314;48.278;16.378;2022-09-13T17:39:11;2.77;;;2.53;;
63217;SDS011;49314;48.278;16.378;2022-09-13T17:41:36;2.95;;;2.72;;
63217;SDS011;49314;48.278;16.378;2022-09-13T17:44:02;2.50;;;2.30;;
63217;SDS011;49314;48.278;16.378;2022-09-13T17:46:27;2.92;;;2.40;;
63217;SDS011;49314;48.278;16.378;2022-09-13T17:48:55;2.80;;;2.60;;
63217;SDS011;49314;48.278;16.378;2022-09-13T17:51:21;3.92;;;2.60;;
63217;SDS011;49314;48.278;16.378;2022-09-13T17:53:48;3.60;;;3.00;;
63217;SDS011;49314;48.278;16.378;2022-09-13T17:56:17;3.67;;;2.90;;
63217;SDS011;49314;48.278;16.378;2022-09-13T17:58:42;4.47;;;3.17;;
63217;SDS011;49314;48.278;16.378;2022-09-13T18:01:08;5.27;;;3.20;;